Date,TemperatureHighF,TemperatureAvgF,TemperatureLowF,DewpointHighF,DewpointAvgF,DewpointLowF,HumidityHigh,HumidityAvg,HumidityLow,PressureMaxIn,PressureMinIn,WindSpeedMaxMPH,WindSpeedAvgMPH,GustSpeedMaxMPH,PrecipitationSumIn
2013-1-1,31.0,26.0,22.0,31.0,23.7,18.0,99,90,81,0.00,40.00,10,6,17,0.00
2013-1-2,23.0,19.7,16.0,21.0,17.5,14.0,99,90,82,0.00,40.00,9,5,15,0.00
2013-1-3,29.0,21.5,12.0,27.0,19.3,12.0,99,91,69,0.00,40.00,14,8,23,0.00
2013-1-4,30.0,27.0,25.0,27.0,21.7,18.0,99,80,61,0.00,40.00,24,13,31,0.00
2013-1-5,35.0,29.7,25.0,28.0,25.5,22.0,96,84,68,0.00,40.00,13,8,19,0.00
2013-1-6,37.0,33.9,31.0,35.0,32.2,28.0,99,93,77,0.00,40.00,14,9,24,0.00
2013-1-7,36.0,31.9,29.0,33.0,29.1,26.0,99,89,66,0.00,40.00,17,8,25,0.00
2013-1-8,44.0,33.7,25.0,32.0,26.6,22.0,99,78,44,0.00,40.00,14,7,18,0.00
2013-1-9,47.0,40.2,35.0,42.0,33.9,30.0,94,78,61,0.00,40.00,19,9,28,0.00
2013-1-10,43.0,36.5,28.0,38.0,30.5,27.0,99,80,56,0.00,40.00,10,3,17,0.00
2013-1-11,55.0,48.0,41.0,55.0,43.6,27.0,99,86,53,0.00,40.00,16,9,28,0.00
2013-1-12,60.0,54.6,48.0,58.0,54.1,48.0,99,98,91,0.00,40.00,12,7,18,0.00
2013-1-13,64.0,52.0,37.0,63.0,51.8,37.0,99,98,94,0.00,40.00,18,7,30,0.00
2013-1-14,37.0,29.4,27.0,37.0,27.4,23.0,99,92,81,0.00,40.00,14,6,24,0.00
2013-1-15,33.0,28.4,26.0,26.0,24.6,20.0,96,85,61,0.00,40.00,7,4,12,0.00
2013-1-16,35.0,31.0,28.0,29.0,25.2,21.0,91,79,60,0.00,40.00,14,6,22,0.00
2013-1-17,35.0,32.6,25.0,34.0,27.9,18.0,99,83,68,0.00,40.00,17,7,27,0.00
2013-1-18,36.0,26.9,20.0,20.0,16.3,10.0,83,64,52,0.00,40.00,22,11,37,0.00
2013-1-19,50.0,42.8,35.0,29.0,25.2,20.0,60,49,41,0.00,40.00,22,15,37,0.00
2013-1-20,48.0,28.5,21.0,34.0,19.6,13.0,79,69,48,0.00,40.00,28,14,44,0.00
2013-1-21,22.0,17.6,9.0,16.0,12.3,9.0,100,80,61,0.00,40.00,17,10,25,0.00
2013-1-22,10.0,7.6,6.0,9.0,5.6,1.0,100,91,76,0.00,40.00,16,11,29,0.00
2013-1-23,15.0,10.8,7.0,13.0,9.1,4.0,100,92,75,0.00,40.00,12,7,20,0.00
2013-1-24,20.0,15.4,10.0,16.0,10.0,5.0,100,79,53,0.00,40.00,15,6,24,0.00
2013-1-25,19.0,15.3,12.0,18.0,13.0,8.0,99,90,79,0.00,40.00,7,3,12,0.00
2013-1-26,24.0,21.6,17.0,24.0,21.5,17.0,100,99,96,0.00,40.00,11,5,18,0.00
2013-1-27,31.0,23.4,12.0,28.0,19.1,12.0,100,84,62,0.00,40.00,11,4,17,0.00
2013-1-28,48.0,40.0,28.0,48.0,40.0,28.0,100,99,99,0.00,40.00,15,10,25,0.00
2013-1-29,62.0,51.0,38.0,59.0,50.5,38.0,99,98,83,0.00,40.00,17,8,30,0.00
2013-1-30,64.0,57.2,37.0,59.0,54.6,37.0,99,91,75,0.00,40.00,26,15,45,0.00
2013-1-31,37.0,23.5,19.0,37.0,18.7,11.0,99,81,64,0.00,40.00,19,13,34,0.00
2013-2-1,20.0,15.3,12.0,17.0,12.1,8.0,100,87,71,0.00,40.00,17,12,31,0.00
2013-2-2,23.0,17.2,12.0,23.0,15.7,8.0,100,93,82,0.00,40.00,11,6,19,0.00
2013-2-3,21.0,18.7,16.0,21.0,17.8,15.0,100,95,81,0.00,40.00,15,7,25,0.00
2013-2-4,27.0,21.1,17.0,24.0,19.6,12.0,100,94,77,0.00,40.00,13,4,21,0.00
2013-2-5,31.0,24.8,20.0,28.0,22.7,20.0,100,91,72,0.00,40.00,7,3,12,0.00
2013-2-6,32.0,25.5,21.0,28.0,18.2,12.0,100,75,47,0.00,40.00,12,5,21,0.00
2013-2-7,46.0,32.6,20.0,30.0,22.1,14.0,78,65,46,0.00,40.00,12,5,19,0.00
2013-2-8,39.0,31.1,24.0,39.0,30.2,24.0,100,96,79,0.00,40.00,21,11,33,0.00
2013-2-9,32.0,25.3,22.0,25.0,22.7,20.0,100,90,64,0.00,40.00,14,5,24,0.00
2013-2-10,50.0,35.9,24.0,29.0,20.3,18.0,95,57,29,0.00,40.00,16,7,24,0.00
2013-2-11,52.0,41.3,33.0,49.0,36.0,27.0,100,81,57,0.00,40.00,24,15,40,0.00
2013-2-12,33.0,30.7,26.0,29.0,26.9,26.0,99,85,76,0.00,40.00,16,7,27,0.00
2013-2-13,35.0,28.7,24.0,30.0,27.5,24.0,100,95,72,0.00,40.00,8,3,12,0.00
2013-2-14,38.0,32.7,25.0,38.0,32.4,25.0,100,98,85,0.00,40.00,17,9,29,0.00
2013-2-15,37.0,30.1,25.0,33.0,27.3,21.0,100,89,70,0.00,40.00,17,6,29,0.00
2013-2-16,28.0,24.0,19.0,23.0,19.1,12.0,100,82,53,0.00,40.00,11,4,19,0.00
2013-2-17,20.0,17.3,11.0,20.0,14.6,9.0,100,89,68,0.00,40.00,13,7,21,0.00
2013-2-18,46.0,27.0,10.0,32.0,17.6,8.0,94,70,49,0.00,40.00,16,9,26,0.00
2013-2-19,48.0,31.7,17.0,42.0,29.5,15.0,100,92,53,0.00,40.00,23,14,37,0.00
2013-2-20,21.0,18.4,16.0,19.0,15.7,12.0,99,89,73,0.00,40.00,16,10,27,0.00
2013-2-21,22.0,19.4,16.0,21.0,17.4,15.0,99,92,79,0.00,40.00,11,5,20,0.00
2013-2-22,38.0,29.0,18.0,38.0,28.4,17.0,99,97,84,0.00,40.00,14,7,25,0.00
2013-2-23,36.0,32.3,29.0,36.0,30.9,27.0,99,94,79,0.00,40.00,12,6,21,0.00
2013-2-24,32.0,29.1,26.0,31.0,27.6,24.0,99,94,79,0.00,40.00,14,7,19,0.00
2013-2-25,42.0,32.3,23.0,35.0,27.1,23.0,100,83,55,0.00,40.00,7,2,13,0.00
2013-2-26,38.0,33.8,30.0,37.0,29.5,26.0,99,84,68,0.00,40.00,19,7,31,0.00
2013-2-27,42.0,37.4,33.0,42.0,37.3,33.0,100,99,99,0.00,40.00,13,8,21,0.00
2013-2-28,33.0,32.2,30.0,33.0,32.2,30.0,100,99,99,0.00,40.00,12,8,22,0.00
2013-3-1,30.0,26.8,24.0,30.0,26.7,24.0,100,99,95,0.00,40.00,15,8,22,0.00
2013-3-2,27.0,24.5,22.0,27.0,24.4,22.0,100,99,99,0.00,40.00,11,7,17,0.00
2013-3-3,26.0,23.5,22.0,26.0,23.3,22.0,100,99,90,0.00,40.00,11,7,16,0.00
2013-3-4,31.0,25.2,19.0,26.0,22.6,19.0,100,90,66,0.00,40.00,10,4,14,0.00
2013-3-5,42.0,29.2,19.0,31.0,24.2,19.0,100,84,43,0.00,40.00,9,3,15,0.00
2013-3-6,44.0,35.6,31.0,34.0,32.1,30.0,99,87,64,0.00,40.00,11,6,17,0.00
2013-3-7,35.0,32.4,28.0,35.0,32.4,28.0,99,99,99,0.00,40.00,12,5,17,0.00
2013-3-8,34.0,29.9,26.0,34.0,29.8,26.0,99,99,99,0.00,40.00,7,3,11,0.00
2013-3-9,54.0,38.3,22.0,38.0,30.3,22.0,99,76,47,0.00,40.00,7,3,15,0.00
2013-3-10,65.0,57.5,49.0,38.0,36.1,31.0,60,45,34,0.00,40.00,17,9,24,0.00
2013-3-11,62.0,53.2,43.0,55.0,45.4,36.0,100,79,38,0.00,40.00,21,9,30,0.00
2013-3-12,43.0,36.0,33.0,43.0,35.6,31.0,100,97,91,0.00,40.00,14,10,26,0.00
2013-3-13,33.0,29.9,27.0,32.0,28.5,21.0,100,94,73,0.00,40.00,18,11,30,0.00
2013-3-14,34.0,29.1,26.0,26.0,23.2,20.0,86,78,64,0.00,40.00,14,8,24,0.00
2013-3-15,41.0,34.7,30.0,38.0,32.8,26.0,100,92,82,0.00,40.00,14,6,19,0.00
2013-3-16,35.0,31.2,28.0,35.0,31.2,28.0,100,99,99,0.00,40.00,12,4,17,0.00
2013-3-17,32.0,28.8,25.0,29.0,26.3,23.0,100,90,75,0.00,40.00,11,5,17,0.00
2013-3-18,41.0,33.1,25.0,41.0,31.9,22.0,100,94,86,0.00,40.00,15,9,27,0.00
2013-3-19,40.0,30.7,25.0,40.0,27.4,21.0,99,87,69,0.00,40.00,19,12,29,0.00
2013-3-20,30.0,27.3,23.0,26.0,22.8,19.0,99,83,71,0.00,40.00,15,10,27,0.00
2013-3-21,29.0,23.1,17.0,29.0,22.5,15.0,99,97,79,0.00,40.00,14,9,22,0.00
2013-3-22,34.0,27.5,24.0,28.0,26.2,23.0,99,94,77,0.00,40.00,14,7,23,0.00
2013-3-23,38.0,28.4,17.0,33.0,25.5,17.0,99,89,70,0.00,40.00,7,2,12,0.00
2013-3-24,35.0,30.1,25.0,31.0,26.9,23.0,99,88,64,0.00,40.00,12,5,21,0.00
2013-3-25,36.0,32.9,31.0,36.0,32.5,30.0,99,98,85,0.00,40.00,11,6,19,0.00
2013-3-26,40.0,33.8,32.0,38.0,33.6,32.0,99,98,90,0.00,40.00,11,5,19,0.00
2013-3-27,40.0,35.6,31.0,37.0,32.5,29.0,100,89,64,0.00,40.00,13,9,23,0.00
2013-3-28,40.0,36.4,33.0,37.0,35.0,33.0,100,94,83,0.00,40.00,9,5,15,0.00
2013-3-29,45.0,40.5,35.0,37.0,32.1,25.0,94,73,48,0.00,40.00,11,4,16,0.00
2013-3-30,55.0,42.8,29.0,31.0,28.2,26.0,92,59,35,0.00,40.00,11,4,18,0.00
2013-3-31,52.0,47.6,44.0,50.0,36.6,-99.9,99,70,46,0.00,40.00,16,8,26,0.00
2013-4-1,48.0,35.6,30.0,47.0,28.3,17.0,99,76,46,0.00,40.00,16,10,24,0.00
2013-4-2,37.0,31.4,27.0,27.0,20.4,14.0,92,64,46,0.00,40.00,15,8,24,0.00
2013-4-3,35.0,30.9,27.0,28.0,20.7,16.0,84,65,51,0.00,40.00,14,5,24,0.00
2013-4-4,57.0,38.1,24.0,21.0,18.2,15.0,77,49,19,0.00,40.00,12,4,16,0.00
2013-4-5,43.0,38.9,31.0,38.0,28.0,18.0,96,66,38,0.00,40.00,13,7,21,0.00
2013-4-6,55.0,41.1,27.0,22.0,19.4,16.0,67,45,25,0.00,40.00,14,5,20,0.00
2013-4-7,68.0,55.6,44.0,51.0,38.4,19.0,91,56,25,0.00,40.00,24,12,35,0.00
2013-4-8,70.0,55.9,39.0,62.0,49.0,39.0,99,79,55,0.00,40.00,20,8,33,0.00
2013-4-9,78.0,61.0,46.0,61.0,53.5,46.0,100,79,54,0.00,40.00,14,6,21,0.00
2013-4-10,67.0,54.7,43.0,67.0,53.9,43.0,100,96,86,0.00,40.00,12,4,22,0.00
2013-4-11,50.0,44.7,40.0,50.0,44.7,40.0,99,99,99,0.00,40.00,10,5,19,0.00
2013-4-12,56.0,45.3,40.0,56.0,44.9,38.0,100,98,90,0.00,40.00,16,8,24,0.00
2013-4-13,44.0,40.0,38.0,43.0,39.3,35.0,99,96,84,0.00,40.00,19,10,27,0.00
2013-4-14,54.0,43.6,34.0,42.0,38.9,34.0,99,84,61,0.00,40.00,9,4,16,0.00
2013-4-15,71.0,60.2,50.0,57.0,48.8,40.0,87,66,53,0.00,40.00,16,8,27,0.00
2013-4-16,67.0,56.1,49.0,67.0,55.3,49.0,99,97,86,0.00,40.00,14,7,22,0.00
2013-4-17,64.0,53.6,45.0,49.0,43.5,38.0,99,71,44,0.00,40.00,11,5,16,0.00
2013-4-18,84.0,70.1,58.0,69.0,62.6,49.0,99,80,43,0.00,40.00,24,12,35,0.00
2013-4-19,71.0,53.2,40.0,66.0,49.0,33.0,100,86,65,0.00,40.00,22,13,37,0.00
2013-4-20,40.0,36.6,32.0,37.0,32.1,28.0,99,84,64,0.00,40.00,19,10,34,0.00
2013-4-21,48.0,38.8,30.0,34.0,30.3,28.0,98,73,48,0.00,40.00,12,4,22,0.00
2013-4-22,65.0,51.3,37.0,39.0,34.3,29.0,79,54,36,0.00,40.00,10,5,17,0.00
2013-4-23,72.0,58.9,44.0,44.0,38.3,29.0,73,47,35,0.00,40.00,13,8,22,0.00
2013-4-24,64.0,46.9,36.0,58.0,45.2,36.0,99,94,48,0.00,40.00,16,8,23,0.00
2013-4-25,52.0,41.6,32.0,46.0,38.4,32.0,100,89,57,0.00,40.00,18,8,28,0.00
2013-4-26,56.0,47.1,34.0,45.0,36.5,30.0,99,70,37,0.00,40.00,7,3,16,0.00
2013-4-27,72.0,57.3,43.0,44.0,38.4,35.0,77,52,29,0.00,40.00,11,3,15,0.00
2013-4-28,59.0,55.7,54.0,56.0,48.5,-99.9,99,81,45,0.00,40.00,10,5,22,0.00
2013-4-29,65.0,58.5,55.0,62.0,57.0,55.0,100,94,76,0.00,40.00,11,5,17,0.00
2013-4-30,75.0,64.3,53.0,63.0,57.2,53.0,100,80,52,0.00,40.00,12,5,18,0.00
2013-5-1,82.0,68.3,56.0,61.0,56.9,51.0,99,70,41,0.00,40.00,10,6,17,0.00
2013-5-2,79.0,68.6,58.0,53.0,44.8,37.0,57,43,30,0.00,40.00,12,6,18,0.00
2013-5-3,78.0,67.4,57.0,47.0,42.3,37.0,57,40,30,0.00,40.00,14,8,27,0.00
2013-5-4,73.0,63.7,53.0,48.0,43.7,40.0,72,50,33,0.00,40.00,12,7,22,0.00
2013-5-5,76.0,64.3,54.0,46.0,40.9,30.0,72,45,22,0.00,40.00,13,7,24,0.00
2013-5-6,76.0,64.0,51.0,55.0,46.1,31.0,78,53,30,0.00,40.00,12,6,20,0.00
2013-5-7,78.0,65.9,58.0,62.0,58.2,51.0,99,78,40,0.00,40.00,11,4,17,0.00
2013-5-8,73.0,64.3,60.0,66.0,60.2,58.0,99,87,60,0.00,40.00,9,3,12,0.00
2013-5-9,76.0,65.6,55.0,63.0,50.6,39.0,99,65,27,0.00,40.00,9,3,14,0.00
2013-5-10,74.0,63.4,50.0,70.0,57.1,-99.9,100,86,41,0.00,40.00,16,8,26,0.00
2013-5-11,55.0,47.7,43.0,55.0,47.7,43.0,100,99,97,0.00,40.00,16,6,25,0.00
2013-5-12,48.0,42.3,38.0,44.0,37.8,-99.9,100,87,60,0.00,40.00,19,10,30,0.00
2013-5-13,48.0,42.0,36.0,35.0,31.6,28.0,87,67,47,0.00,40.00,12,6,20,0.00
2013-5-14,65.0,51.3,38.0,46.0,38.6,31.0,79,63,46,0.00,40.00,13,7,25,0.00
2013-5-15,82.0,68.7,55.0,67.0,56.4,46.0,96,67,37,0.00,40.00,17,8,27,0.00
2013-5-16,78.0,64.5,56.0,56.0,29.5,-99.9,92,51,28,0.00,40.00,9,3,16,0.00
2013-5-17,76.0,65.0,55.0,56.0,41.3,-99.9,64,51,38,0.00,40.00,12,4,17,0.00
2013-5-18,81.0,68.3,57.0,60.0,53.2,46.0,76,60,36,0.00,40.00,12,5,18,0.00
2013-5-19,83.0,72.0,62.0,73.0,66.9,55.0,99,85,62,0.00,40.00,10,5,16,0.00
2013-5-20,86.0,76.2,65.0,77.0,71.9,65.0,99,87,63,0.00,40.00,14,7,24,0.00
2013-5-21,85.0,77.6,70.0,78.0,72.2,67.0,99,85,57,0.00,40.00,17,9,24,0.00
2013-5-22,85.0,76.2,67.0,72.0,68.9,66.0,99,80,56,0.00,40.00,19,9,31,0.00
2013-5-23,73.0,59.9,42.0,69.0,59.4,42.0,100,98,83,0.00,40.00,14,8,24,0.00
2013-5-24,44.0,42.2,41.0,43.0,40.9,39.0,99,95,83,0.00,40.00,14,9,22,0.00
2013-5-25,58.0,47.9,38.0,46.0,40.3,34.0,99,77,47,0.00,40.00,12,5,19,0.00
2013-5-26,63.0,51.9,39.0,49.0,41.2,37.0,99,70,40,0.00,40.00,9,3,17,0.00
2013-5-27,62.0,52.5,40.0,56.0,48.3,40.0,99,87,50,0.00,40.00,9,3,14,0.00
2013-5-28,80.0,66.7,53.0,78.0,65.0,53.0,99,94,76,0.00,40.00,12,7,24,0.00
2013-5-29,85.0,77.6,73.0,72.0,69.3,67.0,92,76,60,0.00,40.00,17,9,29,0.00
2013-5-30,88.0,78.9,69.0,76.0,68.8,62.0,98,74,44,0.00,40.00,13,7,21,0.00
2013-5-31,88.0,74.9,67.0,74.0,70.3,67.0,100,86,61,0.00,40.00,18,7,30,0.00
2013-6-1,83.0,72.9,66.0,78.0,71.2,66.0,100,94,80,0.00,40.00,19,9,29,0.00
2013-6-2,74.0,68.6,60.0,70.0,64.4,-99.9,100,90,71,0.00,40.00,17,9,25,0.00
2013-6-3,61.0,55.3,51.0,59.0,50.1,37.0,100,84,41,0.00,40.00,10,6,16,0.00
2013-6-4,65.0,57.3,47.0,57.0,47.6,42.0,96,72,48,0.00,40.00,11,4,15,0.00
2013-6-5,74.0,63.1,52.0,59.0,51.9,47.0,90,68,44,0.00,40.00,12,4,17,0.00
2013-6-6,64.0,59.1,54.0,64.0,58.6,54.0,100,98,81,0.00,40.00,10,4,14,0.00
2013-6-7,58.0,55.4,54.0,58.0,55.4,54.0,100,99,99,0.00,40.00,9,4,12,0.00
2013-6-8,69.0,60.7,56.0,60.0,57.3,55.0,100,89,68,0.00,40.00,7,3,12,0.00
2013-6-9,80.0,67.5,54.0,67.0,61.6,54.0,99,83,53,0.00,40.00,9,3,14,0.00
2013-6-10,73.0,68.5,64.0,73.0,67.9,64.0,100,97,79,0.00,40.00,11,4,19,0.00
2013-6-11,75.0,68.1,64.0,71.0,66.3,64.0,100,94,75,0.00,40.00,11,6,20,0.00
2013-6-12,78.0,71.8,66.0,75.0,70.4,66.0,100,95,75,0.00,40.00,9,3,13,0.00
2013-6-13,71.0,65.0,60.0,71.0,63.8,60.0,99,96,76,0.00,40.00,19,8,34,0.00
2013-6-14,68.0,61.6,57.0,65.0,59.3,54.0,100,92,63,0.00,40.00,9,5,14,0.00
2013-6-15,81.0,66.6,50.0,65.0,54.5,46.0,99,70,39,0.00,40.00,9,3,19,0.00
2013-6-16,80.0,71.5,65.0,73.0,68.4,63.0,100,90,71,0.00,40.00,15,8,23,0.00
2013-6-17,82.0,72.8,64.0,71.0,65.0,61.0,99,79,50,0.00,40.00,14,5,24,0.00
2013-6-18,73.0,65.6,60.0,69.0,61.6,52.0,100,87,67,0.00,40.00,16,6,24,0.00
2013-6-19,71.0,63.5,54.0,58.0,52.2,47.0,99,69,50,0.00,40.00,12,5,19,0.00
2013-6-20,76.0,65.3,55.0,59.0,51.8,46.0,90,65,34,0.00,40.00,7,2,15,0.00
2013-6-22,90.0,85.8,79.0,74.0,72.6,71.0,81,65,59,0.00,40.00,12,8,18,0.00
2013-6-23,91.0,81.6,70.0,74.0,71.1,67.0,99,73,46,0.00,40.00,12,6,20,0.00
2013-6-24,89.0,79.3,70.0,74.0,69.7,67.0,92,74,50,0.00,40.00,11,7,18,0.00
2013-6-25,87.0,75.5,68.0,76.0,72.2,68.0,99,90,57,0.00,40.00,13,7,20,0.00
2013-6-26,87.0,74.1,67.0,76.0,69.8,67.0,99,87,56,0.00,40.00,11,5,14,0.00
2013-6-27,80.0,72.1,69.0,74.0,70.9,68.0,99,96,66,0.00,40.00,9,4,13,0.00
2013-6-28,76.0,69.1,66.0,71.0,67.6,64.0,99,95,82,0.00,40.00,11,4,15,0.00
2013-6-29,76.0,68.5,63.0,72.0,66.6,63.0,99,94,81,0.00,40.00,9,4,13,0.00
2013-6-30,75.0,68.9,63.0,71.0,67.0,63.0,99,93,78,0.00,40.00,11,4,15,0.00
2013-7-1,73.0,66.9,65.0,72.0,66.9,64.0,100,99,95,0.00,40.00,10,5,15,0.00
2013-7-2,80.0,69.6,63.0,74.0,67.8,63.0,100,94,71,0.00,40.00,9,3,12,0.00
2013-7-3,85.0,73.5,67.0,77.0,70.8,67.0,99,92,59,0.00,40.00,11,2,17,0.00
2013-7-4,81.0,74.9,69.0,76.0,72.6,69.0,99,92,77,0.00,40.00,12,6,20,0.00
2013-7-5,80.0,73.0,69.0,76.0,72.0,69.0,100,96,80,0.00,40.00,12,3,17,0.00
2013-7-6,85.0,74.9,69.0,77.0,72.3,69.0,99,92,68,0.00,40.00,8,2,12,0.00
2013-7-7,80.0,73.7,68.0,73.0,70.4,66.0,100,90,68,0.00,40.00,16,7,24,0.00
2013-7-8,87.0,72.3,65.0,76.0,69.6,65.0,100,92,57,0.00,40.00,10,5,17,0.00
2013-7-9,86.0,73.6,69.0,81.0,73.1,69.0,100,98,81,0.00,40.00,10,6,19,0.00
2013-7-10,85.0,70.7,69.0,82.0,68.0,-99.9,99,96,81,0.00,40.00,11,6,17,0.00
2013-7-11,73.0,68.9,64.0,70.0,63.7,57.0,100,84,59,0.00,40.00,10,4,16,0.00
2013-7-12,78.0,69.3,62.0,70.0,65.9,62.0,100,89,66,0.00,40.00,16,4,21,0.00
2013-7-13,86.0,75.9,63.0,74.0,69.4,63.0,99,81,55,0.00,40.00,12,3,16,0.00
2013-7-14,89.0,79.0,69.0,80.0,74.6,69.0,100,87,63,0.00,40.00,9,4,13,0.00
2013-7-15,89.0,81.0,75.0,78.0,76.3,74.0,99,86,64,0.00,40.00,7,2,11,0.00
2013-7-16,87.0,52.4,76.0,81.0,14.6,-99.9,100,94,79,0.00,40.00,8,3,12,0.00
2013-7-17,-200.0,0.0,200.0,-99.9,-99.9,-99.9,100,100,100,0.00,40.00,9,4,15,0.00
2013-7-18,-200.0,0.0,200.0,-99.9,-99.9,-99.9,100,100,100,0.00,40.00,10,4,16,0.00
2013-7-19,-200.0,0.0,200.0,-99.9,-99.9,-99.9,100,100,100,0.00,40.00,21,9,27,0.00
2013-7-20,-200.0,0.0,200.0,-99.9,-99.9,-99.9,100,99,100,0.00,40.00,21,6,28,0.00
2013-7-21,-200.0,0.0,200.0,-99.9,-99.9,-99.9,100,100,100,0.00,40.00,11,3,14,0.00
2013-7-22,-200.0,0.0,200.0,-99.9,-99.9,-99.9,100,100,100,0.00,40.00,6,1,7,0.00
2013-7-23,-200.0,0.0,200.0,-99.9,-99.9,-99.9,100,100,100,0.00,40.00,13,4,22,0.00
2013-7-24,-200.0,0.0,200.0,-99.9,-99.9,-99.9,100,100,100,0.00,40.00,15,8,22,0.00
2013-7-25,-200.0,0.0,200.0,-99.9,-99.9,-99.9,100,100,100,0.00,40.00,12,3,17,0.00
2013-7-26,-200.0,0.0,200.0,-99.9,-99.9,-99.9,100,100,100,0.00,40.00,9,2,15,0.00
2013-7-27,-200.0,0.0,200.0,-99.9,-99.9,-99.9,100,100,100,0.00,40.00,12,5,19,0.00
2013-7-28,-200.0,0.0,200.0,-99.9,-99.9,-99.9,100,100,100,0.00,40.00,16,8,21,0.00
2013-7-29,-200.0,0.0,200.0,-99.9,-99.9,-99.9,100,100,100,0.00,40.00,11,5,19,0.00
2013-7-30,-200.0,0.0,200.0,-99.9,-99.9,-99.9,100,100,100,0.00,40.00,9,2,17,0.00
2013-7-31,-200.0,0.0,200.0,-99.9,-99.9,-99.9,100,100,100,0.00,40.00,10,3,16,0.00
2013-8-1,-200.0,0.0,200.0,-99.9,-99.9,-99.9,100,100,100,0.00,40.00,11,6,17,0.00
2013-8-2,-200.0,0.0,200.0,-99.9,-99.9,-99.9,100,100,100,0.00,40.00,14,7,24,0.00
2013-8-3,-200.0,0.0,200.0,-99.9,-99.9,-99.9,100,100,100,0.00,40.00,9,4,20,0.00
2013-8-4,-200.0,0.0,200.0,-99.9,-99.9,-99.9,100,100,100,0.00,40.00,11,5,18,0.00
2013-8-5,-200.0,0.0,200.0,-99.9,-99.9,-99.9,100,100,100,0.00,40.00,6,1,10,0.00
2013-8-6,78.0,15.7,69.0,65.0,-65.5,-99.9,100,93,57,0.00,40.00,7,2,12,0.00
2013-8-7,80.0,71.8,67.0,74.0,68.8,64.0,99,90,72,0.00,40.00,11,5,21,0.00
2013-8-8,84.0,74.1,70.0,79.0,73.6,70.0,99,98,77,0.00,40.00,8,4,12,0.00
2013-8-9,74.0,69.0,65.0,70.0,63.1,51.0,99,83,44,0.00,40.00,7,4,12,0.00
2013-8-10,71.0,67.0,64.0,67.0,61.9,58.0,99,83,77,0.00,40.00,4,3,7,0.00
2013-8-23,80.0,74.7,65.0,71.0,56.0,50.0,89,54,37,0.00,40.00,11,6,17,0.00
2013-8-24,80.0,69.7,59.0,64.0,57.9,52.0,98,69,38,0.00,40.00,11,2,14,0.00
2013-8-25,85.0,70.9,60.0,64.0,58.9,-99.9,99,71,42,0.00,40.00,9,3,13,0.00
2013-8-26,87.0,77.8,68.0,73.0,65.4,62.0,85,67,48,0.00,40.00,16,8,21,0.00
2013-8-27,80.0,76.0,69.0,76.0,73.8,69.0,99,93,80,0.00,40.00,16,7,29,0.00
2013-8-28,76.0,74.3,72.0,76.0,74.3,72.0,99,99,99,0.00,40.00,11,6,16,0.00
2013-8-29,86.0,75.9,70.0,75.0,70.4,64.0,99,84,49,0.00,40.00,9,3,14,0.00
2013-8-30,87.0,76.7,67.0,74.0,68.3,64.0,99,78,48,0.00,40.00,12,3,18,0.00
2013-8-31,80.0,75.4,70.0,75.0,72.8,70.0,99,91,79,0.00,40.00,9,2,12,0.00
2013-9-5,71.0,65.6,58.0,69.0,55.2,45.0,99,70,48,0.00,40.00,11,6,17,0.00
2013-9-6,74.0,61.2,50.0,56.0,50.2,40.0,99,71,31,0.00,40.00,4,1,9,0.00
2013-9-7,80.0,70.1,56.0,70.0,58.4,49.0,93,68,43,0.00,40.00,9,5,14,0.00
2013-9-8,72.0,67.9,58.0,71.0,61.5,-99.9,99,83,59,0.00,40.00,11,5,17,0.00
2013-9-9,80.0,67.0,55.0,75.0,63.8,52.0,99,90,70,0.00,40.00,6,1,11,0.00
2013-9-10,95.0,83.2,74.0,79.0,73.2,67.0,99,75,41,0.00,40.00,15,8,20,0.00
2013-9-11,92.0,82.7,76.0,78.0,73.1,65.0,96,75,42,0.00,40.00,12,7,17,0.00
2013-9-12,77.0,69.8,56.0,73.0,68.6,56.0,99,96,83,0.00,40.00,9,4,19,0.00
2013-9-13,60.0,57.2,53.0,60.0,54.4,46.0,99,90,65,0.00,40.00,12,7,24,0.00
2013-9-15,68.0,56.0,49.0,60.0,49.0,-99.9,99,83,48,0.00,40.00,9,1,12,0.00
2013-9-16,62.0,58.3,53.0,60.0,56.1,51.0,99,92,75,0.00,40.00,14,4,21,0.00
2013-9-17,70.0,57.1,44.0,53.0,43.8,38.0,99,67,33,0.00,40.00,6,1,11,0.00
2013-9-18,54.0,52.0,49.0,51.0,47.5,45.0,97,85,70,0.00,40.00,0,0,3,0.00
2013-9-19,78.0,67.4,60.0,70.0,65.6,60.0,99,93,73,0.00,40.00,12,4,17,0.00
2013-9-20,82.0,72.4,65.0,74.0,70.0,65.0,99,92,76,0.00,40.00,15,6,23,0.00
2013-9-21,69.0,63.8,57.0,69.0,63.4,57.0,99,98,81,0.00,40.00,10,4,16,0.00
2013-9-22,58.0,53.7,51.0,58.0,46.9,-99.9,99,81,62,0.00,40.00,9,4,17,0.00
2013-9-23,59.0,53.4,47.0,51.0,47.8,44.0,99,82,58,0.00,40.00,5,1,10,0.00
2013-9-24,67.0,54.0,41.0,55.0,49.1,41.0,99,85,55,0.00,40.00,10,2,14,0.00
2013-9-25,73.0,58.6,47.0,58.0,50.1,43.0,99,77,37,0.00,40.00,6,1,9,0.00
2013-9-26,71.0,60.7,48.0,56.0,50.0,45.0,99,72,39,0.00,40.00,9,2,12,0.00
2013-9-27,71.0,62.6,55.0,60.0,55.6,50.0,99,80,50,0.00,40.00,9,2,16,0.00
2013-9-28,76.0,63.7,53.0,60.0,56.3,53.0,99,80,47,0.00,40.00,8,2,14,0.00
2013-9-29,74.0,63.3,54.0,64.0,57.3,-99.9,99,84,62,0.00,40.00,12,3,17,0.00
2013-9-30,66.0,62.9,60.0,66.0,62.9,60.0,99,99,99,0.00,40.00,7,3,9,0.00
2013-10-1,68.0,65.4,60.0,62.0,61.1,60.0,99,85,74,0.00,40.00,6,4,9,0.00
2013-10-2,75.0,68.2,61.0,70.0,65.7,61.0,99,91,75,0.00,40.00,8,3,14,0.00
2013-10-3,79.0,69.0,61.0,74.0,66.5,58.0,99,92,73,0.00,40.00,6,2,12,0.00
2013-10-4,78.0,71.4,67.0,72.0,69.1,66.0,99,92,72,0.00,40.00,10,4,15,0.00
2013-10-5,79.0,69.9,66.0,73.0,69.1,66.0,99,97,71,0.00,40.00,7,1,12,0.00
2013-10-6,80.0,71.5,56.0,73.0,68.3,56.0,99,90,65,0.00,40.00,15,6,27,0.00
2013-10-7,58.0,54.1,47.0,56.0,48.1,43.0,99,81,58,0.00,40.00,18,8,25,0.00
2013-10-8,69.0,57.3,47.0,55.0,46.8,41.0,99,72,38,0.00,40.00,9,3,11,0.00
2013-10-9,70.0,57.4,46.0,49.0,44.8,41.0,99,67,34,0.00,40.00,6,2,11,0.00
2013-10-10,67.0,55.0,47.0,54.0,46.7,41.0,90,74,40,0.00,40.00,6,2,9,0.00
2013-10-11,74.0,58.8,47.0,56.0,49.5,46.0,99,74,36,0.00,40.00,7,2,11,0.00
2013-10-12,77.0,64.5,55.0,67.0,56.4,43.0,99,75,61,0.00,40.00,7,2,10,0.00
2013-10-13,68.0,62.4,60.0,68.0,60.3,-99.9,99,96,83,0.00,40.00,9,4,12,0.00
2013-10-14,62.0,56.1,50.0,58.0,50.1,44.0,99,81,61,0.00,40.00,12,5,17,0.00
2013-10-15,63.0,56.7,47.0,63.0,56.4,46.0,99,98,87,0.00,40.00,9,-12,14,0.00
2013-10-16,69.0,61.1,54.0,67.0,60.0,49.0,99,95,75,0.00,40.00,13,7,19,0.00
2013-10-17,60.0,50.3,44.0,53.0,48.2,44.0,99,93,60,0.00,40.00,13,5,21,0.00
2013-10-18,62.0,52.7,44.0,49.0,46.1,42.0,99,80,48,0.00,40.00,15,9,23,0.00
2013-10-19,53.0,46.4,42.0,48.0,45.3,42.0,99,96,76,0.00,40.00,11,7,19,0.00
2013-10-20,59.0,48.4,39.0,43.0,38.8,-99.9,99,74,46,0.00,40.00,16,9,22,0.00
2013-10-21,63.0,54.0,48.0,54.0,44.0,41.0,99,71,45,0.00,40.00,16,10,24,0.00
2013-10-22,50.0,43.9,38.0,50.0,35.0,29.0,99,73,48,0.00,40.00,12,8,23,0.00
2013-10-23,46.0,41.1,34.0,43.0,34.5,28.0,99,78,53,0.00,40.00,12,5,18,0.00
2013-10-26,45.0,39.9,36.0,42.0,32.1,28.0,99,74,57,0.00,40.00,21,11,30,0.00
2013-10-27,48.0,42.8,37.0,42.0,33.5,-99.9,99,74,54,0.00,40.00,11,4,17,0.00
2013-10-28,48.0,45.0,48.0,33.0,24.7,-99.9,54,54,54,0.00,40.00,5,2,7,0.00
2013-10-29,48.0,48.0,48.0,33.0,33.0,33.0,54,54,54,0.00,40.00,7,2,10,0.00
2013-10-30,66.0,55.7,48.0,56.0,41.5,33.0,96,59,48,0.00,40.00,7,3,12,0.00
2013-10-31,65.0,60.6,57.0,63.0,60.1,57.0,99,97,86,0.00,40.00,21,12,32,0.00
2013-11-1,61.0,53.2,48.0,61.0,49.5,44.0,99,87,75,0.00,40.00,21,12,32,0.00
2013-11-15,52.0,44.9,37.0,30.0,23.6,19.0,55,42,35,0.00,40.00,12,8,17,0.00
2013-11-16,59.0,49.8,41.0,55.0,43.6,-99.9,95,82,57,0.00,40.00,12,8,20,0.00
2013-11-17,62.0,58.8,55.0,61.0,58.1,55.0,99,97,82,0.00,40.00,23,15,38,0.00
2013-11-18,50.0,42.2,35.0,42.0,35.9,27.0,88,78,70,0.00,40.00,20,13,31,0.00
2013-11-19,37.0,34.8,28.0,30.0,27.3,25.0,90,74,64,0.00,40.00,11,5,17,0.00
2013-11-20,47.0,37.2,28.0,29.0,21.2,15.0,95,58,28,0.00,40.00,10,4,18,0.00
2013-11-21,44.0,40.3,38.0,44.0,32.8,15.0,99,78,37,0.00,40.00,12,6,19,0.00
2013-11-27,33.0,27.5,24.0,33.0,24.1,17.0,99,87,70,0.00,40.00,13,9,22,0.00
2013-11-28,29.0,24.7,20.0,24.0,19.5,15.0,99,80,64,0.00,40.00,11,7,17,0.00
2013-11-29,35.0,28.6,22.0,29.0,23.3,20.0,89,80,66,0.00,40.00,6,2,9,0.00
2013-11-30,41.0,31.6,26.0,29.0,22.4,-99.9,83,72,57,0.00,40.00,12,7,18,0.00
2013-12-1,41.0,37.1,33.0,34.0,31.7,29.0,92,80,69,0.00,40.00,7,5,12,0.00
2013-12-2,40.0,36.4,33.0,38.0,35.2,33.0,99,95,82,0.00,40.00,4,2,8,0.00
2013-12-3,47.0,40.1,32.0,44.0,37.0,31.0,99,88,77,0.00,40.00,6,2,16,0.00
2013-12-4,46.0,46.0,46.0,44.0,44.0,44.0,90,90,90,0.00,40.00,6,6,16,0.00
2013-12-8,28.0,24.2,20.0,28.0,19.8,17.0,99,83,67,0.00,40.00,10,5,19,0.00
2013-12-9,34.0,30.2,24.0,34.0,28.1,21.0,99,91,82,0.00,40.00,16,11,26,0.00
2013-12-10,27.0,22.8,20.0,21.0,13.6,6.0,85,68,41,0.00,40.00,20,11,29,0.00
2013-12-11,24.0,20.4,17.0,23.0,17.5,12.0,99,88,76,0.00,40.00,14,9,21,0.00
2013-12-12,19.0,15.6,11.0,11.0,5.7,1.0,92,66,44,0.00,40.00,16,10,23,0.00
2013-12-13,29.0,23.6,17.0,22.0,15.1,4.0,86,69,57,0.00,40.00,12,6,18,0.00
2013-12-14,33.0,27.6,24.0,33.0,25.2,-99.9,99,96,84,0.00,40.00,9,4,14,0.00